< < Back
Terminal Aerodrome Forecast


Current Version              Previous Versions:   1  2  3  4  5  6  7  8  9  

Terminal Aerodrome Forecast

511
FTUS42 KFFC 281720
TAFPDK
TAF
KPDK 281720Z 2818/2918 04007KT P6SM SCT025 BKN050
     FM290100 03003KT P6SM SCT250
     FM291400 06008KT P6SM SCT045=

Latest METAR

993
SAUS70 KWBC 281800
MTRPDK
METAR KPDK 281753Z 11003KT 10SM SCT038 SCT045 31/21 A3016 RMK AO2 SLP190
T03110206 10317 20233 58014


USA.gov is the U.S. government's official web portal to all federal, state and local government web resources and services.